Eiwamaru — JG5742 — position and weather

sailwx.info

Track history (hours):
 
Tides and Currents Weather Stations Pressure Air Temp Water Temp Dewpoint Dewpoint Depression Visibility Wind Speed Wind Dir Waves Ship Positions

Eiwamaru

Last reported at 2015-Mar-26 17:18 UTC. Time now 2015-Mar-27 06:54 UTC.
Position N 34°58' E 139°28'.

Length 80 m; draft 5.4 m.

Type: Tanker. MMSI: 431101045.

Date/timePositionNaut miles runAvg speedWind from/ knotsBaromVisibWave heightAir tempDewpointWater temp
2015-Mar-26 17:18N 34°58' E 139°28'912.2
2015-Mar-26 16:33N 35°04' E 139°37'1212.4
2015-Mar-26 15:33N 35°13' E 139°46'1211.9
2015-Mar-26 14:33N 35°25' E 139°44'6 6.1
2015-Mar-26 13:34N 35°31' E 139°46'0 0.0
2015-Mar-26 12:34N 35°31' E 139°46'0 0.0
2015-Mar-26 11:34N 35°31' E 139°46'0 0.0
2015-Mar-26 10:33N 35°31' E 139°46'0 0.0
2015-Mar-26 09:33N 35°31' E 139°46'0 0.0
2015-Mar-26 08:34N 35°31' E 139°46'0 0.0
2015-Mar-26 07:33N 35°31' E 139°46'0 0.0
2015-Mar-26 06:33N 35°31' E 139°46'1 1.0
2015-Mar-26 05:29N 35°32' E 139°46'0 0.0
2015-Mar-26 04:33N 35°32' E 139°46'0 0.0
2015-Mar-26 03:33N 35°32' E 139°46'0 0.0
2015-Mar-26 02:34N 35°32' E 139°46'0 0.0
2015-Mar-26 01:34N 35°32' E 139°46'0 0.0
2015-Mar-26 00:33N 35°32' E 139°46'0 0.1
2015-Mar-25 23:33N 35°32' E 139°46'4 4.2
2015-Mar-25 22:33N 35°30' E 139°51'0 0.1
2015-Mar-25 21:33N 35°30' E 139°51'0 0.0
2015-Mar-25 20:33N 35°30' E 139°51'0 0.0
2015-Mar-25 19:34N 35°30' E 139°51'0 0.0
2015-Mar-25 18:33N 35°30' E 139°51'0 0.0
2015-Mar-25 17:33N 35°30' E 139°51'0 0.0
2015-Mar-25 16:34N 35°30' E 139°51'0 0.0
2015-Mar-25 15:32N 35°30' E 139°51'0 0.0
2015-Mar-25 14:34N 35°30' E 139°51'0 0.0
2015-Mar-25 13:33N 35°30' E 139°51'0 0.0
2015-Mar-25 12:33N 35°30' E 139°51'0 0.2
2015-Mar-25 11:33N 35°30' E 139°51'10 9.5
2015-Mar-25 10:33N 35°31' E 140°03'0 0.0
2015-Mar-25 09:33N 35°31' E 140°03'0 0.0
2015-Mar-25 08:33N 35°31' E 140°03'0 0.0
2015-Mar-25 07:33N 35°31' E 140°03'0 0.0
2015-Mar-25 06:33N 35°31' E 140°03'0 0.0
2015-Mar-25 05:33N 35°31' E 140°03'0 0.3
2015-Mar-25 04:33N 35°31' E 140°02'1 1.1
2015-Mar-25 03:33N 35°32' E 140°01'0 0.0
2015-Mar-25 02:33N 35°32' E 140°01'0 0.0
2015-Mar-25 01:33N 35°32' E 140°01'0 0.0
2015-Mar-25 00:33N 35°32' E 140°01'0 0.0
2015-Mar-24 23:33N 35°32' E 140°01'0 0.0
2015-Mar-24 22:33N 35°32' E 140°01'0 0.0
2015-Mar-24 21:33N 35°32' E 140°01'0 0.0
2015-Mar-24 20:33N 35°32' E 140°01'0 0.0
2015-Mar-24 19:32N 35°32' E 140°01'0 0.0
2015-Mar-24 18:33N 35°32' E 140°01'0 0.1
2015-Mar-24 17:33N 35°32' E 140°01'0 0.0
2015-Mar-24 16:33N 35°32' E 140°01'0 0.0
2015-Mar-24 15:33N 35°32' E 140°01'0 0.0
2015-Mar-24 14:31N 35°32' E 140°01'0 0.0
2015-Mar-24 13:33N 35°32' E 140°01'0 0.0
2015-Mar-24 12:32N 35°32' E 140°01'0 0.0
2015-Mar-24 11:33N 35°32' E 140°01'0 0.0
2015-Mar-24 10:33N 35°32' E 140°01'0 0.0
2015-Mar-24 09:33N 35°32' E 140°01'0 0.0
2015-Mar-24 08:33N 35°32' E 140°01'0 0.0
2015-Mar-24 07:33N 35°32' E 140°01'8 8.3
2015-Mar-24 06:34N 35°31' E 139°51'4 4.4
2015-Mar-24 05:33N 35°32' E 139°46'0 0.0
2015-Mar-24 04:33N 35°32' E 139°46'0 0.0
2015-Mar-24 03:33N 35°32' E 139°46'0 0.0
2015-Mar-24 02:33N 35°32' E 139°46'0 0.0
2015-Mar-24 01:33N 35°32' E 139°46'0 0.0
2015-Mar-24 00:33N 35°32' E 139°46'0 0.4
2015-Mar-23 23:33N 35°31' E 139°46'4 3.9
2015-Mar-23 22:33N 35°30' E 139°50'0 0.0
2015-Mar-23 21:33N 35°30' E 139°50'0 0.0
2015-Mar-23 20:33N 35°30' E 139°50'0 0.0
2015-Mar-23 19:33N 35°30' E 139°50'0 0.0
2015-Mar-23 18:33N 35°30' E 139°50'0 0.0
2015-Mar-23 17:33N 35°30' E 139°50'0 0.0
2015-Mar-23 16:33N 35°30' E 139°50'0 0.1
2015-Mar-23 15:33N 35°30' E 139°50'0 0.0
2015-Mar-23 14:33N 35°30' E 139°50'0 0.0
2015-Mar-23 13:33N 35°30' E 139°50'0 0.0
2015-Mar-23 12:33N 35°30' E 139°50'0 0.0
2015-Mar-23 11:33N 35°30' E 139°50'0 0.0
2015-Mar-23 10:33N 35°30' E 139°50'0 0.0
2015-Mar-23 09:33N 35°30' E 139°50'9 8.9
2015-Mar-23 08:33N 35°31' E 140°01'1 1.2
2015-Mar-23 07:33N 35°31' E 140°03'0 0.0
2015-Mar-23 06:33N 35°31' E 140°03'0 0.0
2015-Mar-23 05:33N 35°31' E 140°03'0 0.0
2015-Mar-23 04:32N 35°31' E 140°03'0 0.0
2015-Mar-23 03:33N 35°31' E 140°03'0 0.0
2015-Mar-23 02:33N 35°31' E 140°03'0 0.0
2015-Mar-23 01:33N 35°31' E 140°03'1 1.3
2015-Mar-23 00:33N 35°31' E 140°01'3 2.8
2015-Mar-22 23:33N 35°31' E 139°58'0 0.0
2015-Mar-22 22:33N 35°31' E 139°58'0 0.0
2015-Mar-22 21:33N 35°31' E 139°58'0 0.0
2015-Mar-22 20:33N 35°31' E 139°58'0 0.0
2015-Mar-22 19:33N 35°31' E 139°58'0 0.0
2015-Mar-22 18:33N 35°31' E 139°58'0 0.0
2015-Mar-22 17:33N 35°31' E 139°58'0 0.1
2015-Mar-22 16:33N 35°31' E 139°58'0 0.0
2015-Mar-22 15:32N 35°31' E 139°58'0 0.0
2015-Mar-22 14:33N 35°31' E 139°58'0 0.0
2015-Mar-22 13:33N 35°31' E 139°58'0 0.0
2015-Mar-22 12:33N 35°31' E 139°58'5 5.1
2015-Mar-22 11:33N 35°31' E 139°52'5 4.8
2015-Mar-22 10:34N 35°32' E 139°46'0 0.0
2015-Mar-22 09:34N 35°32' E 139°46'0 0.0
2015-Mar-22 08:34N 35°32' E 139°46'0 0.0
2015-Mar-22 07:33N 35°32' E 139°46'0 0.0
2015-Mar-22 06:14N 35°32' E 139°46'0 0.0
2015-Mar-22 04:16N 35°32' E 139°46'3 4.1
2015-Mar-22 03:34N 35°30' E 139°49'1 1.1
2015-Mar-22 02:31N 35°30' E 139°50'0 0.0
2015-Mar-22 01:30N 35°30' E 139°50'0 0.0
2015-Mar-22 00:34N 35°30' E 139°50'0 0.0
2015-Mar-21 23:33N 35°30' E 139°50'0 0.0
2015-Mar-21 22:31N 35°30' E 139°50'0 0.1
2015-Mar-21 21:34N 35°30' E 139°50'0 0.0
2015-Mar-21 20:34N 35°30' E 139°50'0 0.0
2015-Mar-21 19:34N 35°30' E 139°50'0 0.1
2015-Mar-21 18:34N 35°30' E 139°50'0 0.1
2015-Mar-21 17:34N 35°30' E 139°50'0 0.0
2015-Mar-21 16:33N 35°30' E 139°50'0 0.1
2015-Mar-21 15:33N 35°30' E 139°50'0 0.0
2015-Mar-21 14:34N 35°30' E 139°50'0 0.0
2015-Mar-21 13:34N 35°30' E 139°50'0 0.0
2015-Mar-21 12:33N 35°30' E 139°50'0 0.0
2015-Mar-21 11:33N 35°30' E 139°50'0 0.0
2015-Mar-21 10:33N 35°30' E 139°50'0 0.0
2015-Mar-21 09:34N 35°30' E 139°50'4 4.2
2015-Mar-21 08:33N 35°30' E 139°56'2 0.1
2015-Mar-19 22:22N 35°31' E 139°58'0 0.0
2015-Mar-19 21:29N 35°31' E 139°58'0 0.0
2015-Mar-19 19:24N 35°31' E 139°58'0 0.0
2015-Mar-19 18:25N 35°31' E 139°58'3 0.5
2015-Mar-19 12:27N 35°31' E 139°55'1112.3
2015-Mar-19 11:33N 35°23' E 139°45'1111.5
2015-Mar-19 10:33N 35°11' E 139°47'1212.4
2015-Mar-19 09:33N 34°60' E 139°40'23611.6
2015-Mar-18 13:15N 34°01' E 135°03'710.1
2015-Mar-18 12:34N 34°08' E 135°07'1 0.1
2015-Mar-18 08:08N 34°07' E 135°07'0 0.0
2015-Mar-18 07:06N 34°07' E 135°07'0 0.5
2015-Mar-18 06:27N 34°07' E 135°07'0 0.0
2015-Mar-18 05:33N 34°07' E 135°07'0 0.0
2015-Mar-18 04:23N 34°07' E 135°07'0 0.0
2015-Mar-18 03:32N 34°07' E 135°07'0 0.0
2015-Mar-18 02:14N 34°07' E 135°07'0 0.0
2015-Mar-18 01:21N 34°07' E 135°07'0 0.0
2015-Mar-18 00:33N 34°07' E 135°07'0 0.0
2015-Mar-17 23:32N 34°07' E 135°07'0 0.1
2015-Mar-17 22:33N 34°07' E 135°07'0 0.1
2015-Mar-17 21:32N 34°07' E 135°07'0 0.0
2015-Mar-17 20:30N 34°07' E 135°07'0 0.0
2015-Mar-17 19:33N 34°07' E 135°07'0 0.0
2015-Mar-17 18:33N 34°07' E 135°07'0 0.0
2015-Mar-17 16:29N 34°08' E 135°07'0 0.0
2015-Mar-17 14:09N 34°08' E 135°07'0 0.0
2015-Mar-17 12:21N 34°07' E 135°07'0 0.0
2015-Mar-17 11:13N 34°07' E 135°07'1 0.8
2015-Mar-17 10:33N 34°08' E 135°07'  
Track history (hours):
 
Tides and Currents Weather Stations Pressure Air Temp Water Temp Dewpoint Dewpoint Depression Visibility Wind Speed Wind Dir Waves Ship Positions

Eiwamaru

Last reported at 2015-Mar-26 17:18 UTC. Time now 2015-Mar-27 06:54 UTC.
Position N 34°58' E 139°28'.

Length 80 m; draft 5.4 m.

Type: Tanker. MMSI: 431101045.

Date/timePositionNaut miles runAvg speedWind from/ knotsBaromVisibWave heightAir tempDewpointWater temp
2015-Mar-26 17:18N 34°58' E 139°28'912.2
2015-Mar-26 16:33N 35°04' E 139°37'1212.4
2015-Mar-26 15:33N 35°13' E 139°46'1211.9
2015-Mar-26 14:33N 35°25' E 139°44'6 6.1
2015-Mar-26 13:34N 35°31' E 139°46'0 0.0
2015-Mar-26 12:34N 35°31' E 139°46'0 0.0
2015-Mar-26 11:34N 35°31' E 139°46'0 0.0
2015-Mar-26 10:33N 35°31' E 139°46'0 0.0
2015-Mar-26 09:33N 35°31' E 139°46'0 0.0
2015-Mar-26 08:34N 35°31' E 139°46'0 0.0
2015-Mar-26 07:33N 35°31' E 139°46'0 0.0
2015-Mar-26 06:33N 35°31' E 139°46'1 1.0
2015-Mar-26 05:29N 35°32' E 139°46'0 0.0
2015-Mar-26 04:33N 35°32' E 139°46'0 0.0
2015-Mar-26 03:33N 35°32' E 139°46'0 0.0
2015-Mar-26 02:34N 35°32' E 139°46'0 0.0
2015-Mar-26 01:34N 35°32' E 139°46'0 0.0
2015-Mar-26 00:33N 35°32' E 139°46'0 0.1
2015-Mar-25 23:33N 35°32' E 139°46'4 4.2
2015-Mar-25 22:33N 35°30' E 139°51'0 0.1
2015-Mar-25 21:33N 35°30' E 139°51'0 0.0
2015-Mar-25 20:33N 35°30' E 139°51'0 0.0
2015-Mar-25 19:34N 35°30' E 139°51'0 0.0
2015-Mar-25 18:33N 35°30' E 139°51'0 0.0
2015-Mar-25 17:33N 35°30' E 139°51'0 0.0
2015-Mar-25 16:34N 35°30' E 139°51'0 0.0
2015-Mar-25 15:32N 35°30' E 139°51'0 0.0
2015-Mar-25 14:34N 35°30' E 139°51'0 0.0
2015-Mar-25 13:33N 35°30' E 139°51'0 0.0
2015-Mar-25 12:33N 35°30' E 139°51'0 0.2
2015-Mar-25 11:33N 35°30' E 139°51'10 9.5
2015-Mar-25 10:33N 35°31' E 140°03'0 0.0
2015-Mar-25 09:33N 35°31' E 140°03'0 0.0
2015-Mar-25 08:33N 35°31' E 140°03'0 0.0
2015-Mar-25 07:33N 35°31' E 140°03'0 0.0
2015-Mar-25 06:33N 35°31' E 140°03'0 0.0
2015-Mar-25 05:33N 35°31' E 140°03'0 0.3
2015-Mar-25 04:33N 35°31' E 140°02'1 1.1
2015-Mar-25 03:33N 35°32' E 140°01'0 0.0
2015-Mar-25 02:33N 35°32' E 140°01'0 0.0
2015-Mar-25 01:33N 35°32' E 140°01'0 0.0
2015-Mar-25 00:33N 35°32' E 140°01'0 0.0
2015-Mar-24 23:33N 35°32' E 140°01'0 0.0
2015-Mar-24 22:33N 35°32' E 140°01'0 0.0
2015-Mar-24 21:33N 35°32' E 140°01'0 0.0
2015-Mar-24 20:33N 35°32' E 140°01'0 0.0
2015-Mar-24 19:32N 35°32' E 140°01'0 0.0
2015-Mar-24 18:33N 35°32' E 140°01'0 0.1
2015-Mar-24 17:33N 35°32' E 140°01'0 0.0
2015-Mar-24 16:33N 35°32' E 140°01'0 0.0
2015-Mar-24 15:33N 35°32' E 140°01'0 0.0
2015-Mar-24 14:31N 35°32' E 140°01'0 0.0
2015-Mar-24 13:33N 35°32' E 140°01'0 0.0
2015-Mar-24 12:32N 35°32' E 140°01'0 0.0
2015-Mar-24 11:33N 35°32' E 140°01'0 0.0
2015-Mar-24 10:33N 35°32' E 140°01'0 0.0
2015-Mar-24 09:33N 35°32' E 140°01'0 0.0
2015-Mar-24 08:33N 35°32' E 140°01'0 0.0
2015-Mar-24 07:33N 35°32' E 140°01'8 8.3
2015-Mar-24 06:34N 35°31' E 139°51'4 4.4
2015-Mar-24 05:33N 35°32' E 139°46'0 0.0
2015-Mar-24 04:33N 35°32' E 139°46'0 0.0
2015-Mar-24 03:33N 35°32' E 139°46'0 0.0
2015-Mar-24 02:33N 35°32' E 139°46'0 0.0
2015-Mar-24 01:33N 35°32' E 139°46'0 0.0
2015-Mar-24 00:33N 35°32' E 139°46'0 0.4
2015-Mar-23 23:33N 35°31' E 139°46'4 3.9
2015-Mar-23 22:33N 35°30' E 139°50'0 0.0
2015-Mar-23 21:33N 35°30' E 139°50'0 0.0
2015-Mar-23 20:33N 35°30' E 139°50'0 0.0
2015-Mar-23 19:33N 35°30' E 139°50'0 0.0
2015-Mar-23 18:33N 35°30' E 139°50'0 0.0
2015-Mar-23 17:33N 35°30' E 139°50'0 0.0
2015-Mar-23 16:33N 35°30' E 139°50'0 0.1
2015-Mar-23 15:33N 35°30' E 139°50'0 0.0
2015-Mar-23 14:33N 35°30' E 139°50'0 0.0
2015-Mar-23 13:33N 35°30' E 139°50'0 0.0
2015-Mar-23 12:33N 35°30' E 139°50'0 0.0
2015-Mar-23 11:33N 35°30' E 139°50'0 0.0
2015-Mar-23 10:33N 35°30' E 139°50'0 0.0
2015-Mar-23 09:33N 35°30' E 139°50'9 8.9
2015-Mar-23 08:33N 35°31' E 140°01'1 1.2
2015-Mar-23 07:33N 35°31' E 140°03'0 0.0
2015-Mar-23 06:33N 35°31' E 140°03'0 0.0
2015-Mar-23 05:33N 35°31' E 140°03'0 0.0
2015-Mar-23 04:32N 35°31' E 140°03'0 0.0
2015-Mar-23 03:33N 35°31' E 140°03'0 0.0
2015-Mar-23 02:33N 35°31' E 140°03'0 0.0
2015-Mar-23 01:33N 35°31' E 140°03'1 1.3
2015-Mar-23 00:33N 35°31' E 140°01'3 2.8
2015-Mar-22 23:33N 35°31' E 139°58'0 0.0
2015-Mar-22 22:33N 35°31' E 139°58'0 0.0
2015-Mar-22 21:33N 35°31' E 139°58'0 0.0
2015-Mar-22 20:33N 35°31' E 139°58'0 0.0
2015-Mar-22 19:33N 35°31' E 139°58'0 0.0
2015-Mar-22 18:33N 35°31' E 139°58'0 0.0
2015-Mar-22 17:33N 35°31' E 139°58'0 0.1
2015-Mar-22 16:33N 35°31' E 139°58'0 0.0
2015-Mar-22 15:32N 35°31' E 139°58'0 0.0
2015-Mar-22 14:33N 35°31' E 139°58'0 0.0
2015-Mar-22 13:33N 35°31' E 139°58'0 0.0
2015-Mar-22 12:33N 35°31' E 139°58'5 5.1
2015-Mar-22 11:33N 35°31' E 139°52'5 4.8
2015-Mar-22 10:34N 35°32' E 139°46'0 0.0
2015-Mar-22 09:34N 35°32' E 139°46'0 0.0
2015-Mar-22 08:34N 35°32' E 139°46'0 0.0
2015-Mar-22 07:33N 35°32' E 139°46'0 0.0
2015-Mar-22 06:14N 35°32' E 139°46'0 0.0
2015-Mar-22 04:16N 35°32' E 139°46'3 4.1
2015-Mar-22 03:34N 35°30' E 139°49'1 1.1
2015-Mar-22 02:31N 35°30' E 139°50'0 0.0
2015-Mar-22 01:30N 35°30' E 139°50'0 0.0
2015-Mar-22 00:34N 35°30' E 139°50'0 0.0
2015-Mar-21 23:33N 35°30' E 139°50'0 0.0
2015-Mar-21 22:31N 35°30' E 139°50'0 0.1
2015-Mar-21 21:34N 35°30' E 139°50'0 0.0
2015-Mar-21 20:34N 35°30' E 139°50'0 0.0
2015-Mar-21 19:34N 35°30' E 139°50'0 0.1
2015-Mar-21 18:34N 35°30' E 139°50'0 0.1
2015-Mar-21 17:34N 35°30' E 139°50'0 0.0
2015-Mar-21 16:33N 35°30' E 139°50'0 0.1
2015-Mar-21 15:33N 35°30' E 139°50'0 0.0
2015-Mar-21 14:34N 35°30' E 139°50'0 0.0
2015-Mar-21 13:34N 35°30' E 139°50'0 0.0
2015-Mar-21 12:33N 35°30' E 139°50'0 0.0
2015-Mar-21 11:33N 35°30' E 139°50'0 0.0
2015-Mar-21 10:33N 35°30' E 139°50'0 0.0
2015-Mar-21 09:34N 35°30' E 139°50'4 4.2
2015-Mar-21 08:33N 35°30' E 139°56'2 0.1
2015-Mar-19 22:22N 35°31' E 139°58'0 0.0
2015-Mar-19 21:29N 35°31' E 139°58'0 0.0
2015-Mar-19 19:24N 35°31' E 139°58'0 0.0
2015-Mar-19 18:25N 35°31' E 139°58'3 0.5
2015-Mar-19 12:27N 35°31' E 139°55'1112.3
2015-Mar-19 11:33N 35°23' E 139°45'1111.5
2015-Mar-19 10:33N 35°11' E 139°47'1212.4
2015-Mar-19 09:33N 34°60' E 139°40'23611.6
2015-Mar-18 13:15N 34°01' E 135°03'710.1
2015-Mar-18 12:34N 34°08' E 135°07'1 0.1
2015-Mar-18 08:08N 34°07' E 135°07'0 0.0
2015-Mar-18 07:06N 34°07' E 135°07'0 0.5
2015-Mar-18 06:27N 34°07' E 135°07'0 0.0
2015-Mar-18 05:33N 34°07' E 135°07'0 0.0
2015-Mar-18 04:23N 34°07' E 135°07'0 0.0
2015-Mar-18 03:32N 34°07' E 135°07'0 0.0
2015-Mar-18 02:14N 34°07' E 135°07'0 0.0
2015-Mar-18 01:21N 34°07' E 135°07'0 0.0
2015-Mar-18 00:33N 34°07' E 135°07'0 0.0
2015-Mar-17 23:32N 34°07' E 135°07'0 0.1
2015-Mar-17 22:33N 34°07' E 135°07'0 0.1
2015-Mar-17 21:32N 34°07' E 135°07'0 0.0
2015-Mar-17 20:30N 34°07' E 135°07'0 0.0
2015-Mar-17 19:33N 34°07' E 135°07'0 0.0
2015-Mar-17 18:33N 34°07' E 135°07'0 0.0
2015-Mar-17 16:29N 34°08' E 135°07'0 0.0
2015-Mar-17 14:09N 34°08' E 135°07'0 0.0
2015-Mar-17 12:21N 34°07' E 135°07'0 0.0
2015-Mar-17 11:13N 34°07' E 135°07'1 0.8
2015-Mar-17 10:33N 34°08' E 135°07'  

Dump ship's entire track history